createdAt,value
2019-03-21T00:01:19.302Z,40.70
2019-03-21T00:04:21.681Z,40.90
2019-03-21T00:07:23.966Z,40.80
2019-03-21T00:11:21.034Z,40.90
2019-03-21T00:14:32.904Z,40.90
2019-03-21T00:17:42.593Z,41.00
2019-03-21T00:20:46.061Z,41.10
2019-03-21T00:23:48.420Z,41.10
2019-03-21T00:26:50.729Z,41.10
2019-03-21T00:29:53.026Z,41.20
2019-03-21T00:32:55.673Z,41.20
2019-03-21T00:35:57.899Z,41.20
2019-03-21T00:39:00.201Z,41.10
2019-03-21T00:42:02.567Z,41.30
2019-03-21T00:45:05.270Z,41.30
2019-03-21T00:48:10.188Z,41.40
2019-03-21T00:51:12.510Z,41.40
2019-03-21T00:54:14.762Z,41.50
2019-03-21T00:57:17.019Z,41.30
2019-03-21T01:00:32.727Z,41.30
2019-03-21T01:03:35.003Z,41.40
2019-03-21T01:06:37.227Z,41.40
2019-03-21T01:09:40.298Z,41.40
2019-03-21T01:12:42.604Z,41.50
2019-03-21T01:15:44.842Z,41.50
2019-03-21T01:18:47.186Z,41.50
2019-03-21T01:21:49.497Z,41.60
2019-03-21T01:24:51.680Z,41.60
2019-03-21T01:27:53.962Z,41.60
2019-03-21T01:30:56.186Z,41.70
2019-03-21T01:33:58.411Z,41.60
2019-03-21T01:37:00.646Z,41.70
2019-03-21T01:40:02.833Z,41.70
2019-03-21T01:43:05.091Z,41.80
2019-03-21T01:46:10.531Z,41.70
2019-03-21T01:49:12.704Z,41.80
2019-03-21T01:52:14.910Z,41.80
2019-03-21T01:55:17.113Z,41.90
2019-03-21T01:58:19.386Z,41.80
2019-03-21T02:01:21.631Z,41.70
2019-03-21T02:04:23.800Z,41.80
2019-03-21T02:07:26.161Z,41.80
2019-03-21T02:10:28.420Z,41.80
2019-03-21T02:13:30.596Z,41.90
2019-03-21T02:16:32.770Z,41.90
2019-03-21T02:19:34.994Z,41.90
2019-03-21T02:22:37.210Z,41.80
2019-03-21T02:25:39.414Z,41.80
2019-03-21T02:28:41.588Z,41.80
2019-03-21T02:31:43.784Z,41.80
2019-03-21T02:34:45.994Z,41.80
2019-03-21T02:37:48.227Z,41.90
2019-03-21T02:40:50.587Z,42.00
2019-03-21T02:43:52.841Z,41.90
2019-03-21T02:46:54.994Z,41.90
2019-03-21T02:49:57.161Z,42.00
2019-03-21T02:52:59.461Z,42.10
2019-03-21T02:56:01.637Z,42.00
2019-03-21T02:59:04.314Z,42.00
2019-03-21T03:02:06.500Z,42.00
2019-03-21T03:05:12.478Z,42.00
2019-03-21T03:08:14.663Z,42.00
2019-03-21T03:11:17.350Z,42.00
2019-03-21T03:14:20.487Z,42.10
2019-03-21T03:17:22.668Z,42.10
2019-03-21T03:20:24.871Z,42.00
2019-03-21T03:23:28.209Z,42.00
2019-03-21T03:26:30.379Z,42.10
2019-03-21T03:29:32.654Z,42.00
2019-03-21T03:32:35.882Z,42.10
2019-03-21T03:35:38.002Z,42.00
2019-03-21T03:38:40.156Z,42.10
2019-03-21T03:41:42.346Z,42.10
2019-03-21T03:44:44.555Z,42.00
2019-03-21T03:47:46.714Z,42.10
2019-03-21T03:50:48.888Z,42.10
2019-03-21T03:53:51.069Z,42.20
2019-03-21T03:56:53.219Z,42.20
2019-03-21T03:59:55.362Z,42.20
2019-03-21T04:02:57.575Z,42.10
2019-03-21T04:06:00.912Z,42.10
2019-03-21T04:09:04.005Z,42.10
2019-03-21T04:12:06.123Z,42.10
2019-03-21T04:15:09.404Z,42.10
2019-03-21T04:18:11.596Z,42.20
2019-03-21T04:21:13.865Z,42.30
2019-03-21T04:24:16.005Z,42.20
2019-03-21T04:27:18.105Z,42.20
2019-03-21T04:30:20.281Z,42.40
2019-03-21T04:33:23.139Z,42.20
2019-03-21T04:36:25.553Z,42.40
2019-03-21T04:39:27.694Z,42.30
2019-03-21T04:42:29.820Z,42.20
2019-03-21T04:45:32.014Z,42.30
2019-03-21T04:48:34.153Z,42.30
2019-03-21T04:51:36.337Z,42.30
2019-03-21T04:54:39.438Z,42.20
2019-03-21T04:57:42.629Z,42.20
2019-03-21T05:00:44.867Z,42.30
2019-03-21T05:03:47.001Z,42.20
2019-03-21T05:06:49.179Z,42.40
2019-03-21T05:09:51.406Z,42.40
2019-03-21T05:12:53.520Z,42.40
2019-03-21T05:15:55.680Z,42.40
2019-03-21T05:18:58.696Z,42.40
2019-03-21T05:22:00.970Z,42.40
2019-03-21T05:25:03.129Z,42.40
2019-03-21T05:28:05.238Z,42.40
2019-03-21T05:31:13.862Z,42.40
2019-03-21T05:34:16.018Z,42.30
2019-03-21T05:37:18.129Z,42.50
2019-03-21T05:40:20.351Z,42.40
2019-03-21T05:43:27.771Z,42.40
2019-03-21T05:46:30.171Z,42.50
2019-03-21T05:49:32.389Z,42.40
2019-03-21T05:52:34.502Z,42.30
2019-03-21T05:55:36.869Z,42.30
2019-03-21T05:58:39.018Z,42.30
2019-03-21T06:01:41.149Z,42.30
2019-03-21T06:04:43.291Z,42.50
2019-03-21T06:07:57.514Z,42.50
2019-03-21T06:10:59.733Z,42.40
2019-03-21T06:14:01.878Z,42.40
2019-03-21T06:17:04.046Z,42.30
2019-03-21T06:20:42.294Z,42.30
2019-03-21T06:24:47.146Z,42.40
2019-03-21T06:27:49.296Z,42.20
2019-03-21T06:30:51.454Z,42.40
2019-03-21T06:33:53.616Z,42.60
2019-03-21T06:36:55.812Z,42.90
2019-03-21T06:39:58.168Z,42.90
2019-03-21T06:43:00.326Z,42.80
2019-03-21T06:46:02.527Z,42.70
2019-03-21T06:49:04.687Z,42.90
2019-03-21T06:52:07.101Z,42.80
2019-03-21T06:55:09.293Z,42.80
2019-03-21T06:58:11.439Z,42.90
2019-03-21T07:01:13.600Z,43.00
2019-03-21T07:04:15.806Z,43.20
2019-03-21T07:07:17.946Z,43.10
2019-03-21T07:10:21.181Z,43.20
2019-03-21T07:13:23.369Z,43.30
2019-03-21T07:16:25.656Z,44.00
2019-03-21T07:19:27.849Z,43.40
2019-03-21T07:22:30.053Z,43.40
2019-03-21T07:25:32.299Z,44.00
2019-03-21T07:28:34.493Z,43.50
2019-03-21T07:31:36.616Z,43.60
2019-03-21T07:34:38.747Z,43.60
2019-03-21T07:37:40.967Z,43.50
2019-03-21T07:40:43.136Z,44.20
2019-03-21T07:43:45.399Z,43.60
2019-03-21T07:46:47.598Z,43.70
2019-03-21T07:49:49.814Z,43.70
2019-03-21T07:52:51.978Z,43.80
2019-03-21T07:55:54.167Z,44.10
2019-03-21T07:58:57.835Z,44.20
2019-03-21T08:02:00.195Z,44.20
2019-03-21T08:05:02.337Z,44.30
2019-03-21T08:08:04.834Z,44.40
2019-03-21T08:11:07.076Z,44.60
2019-03-21T08:14:09.304Z,44.70
2019-03-21T08:17:11.533Z,44.70
2019-03-21T08:20:14.271Z,44.90
2019-03-21T08:23:16.427Z,44.70
2019-03-21T08:26:18.629Z,44.70
2019-03-21T08:29:20.861Z,44.80
2019-03-21T08:32:23.060Z,44.50
2019-03-21T08:35:25.243Z,44.40
2019-03-21T08:38:27.463Z,44.50
2019-03-21T08:41:30.703Z,44.60
2019-03-21T08:44:32.941Z,44.70
2019-03-21T08:47:37.106Z,45.60
2019-03-21T08:50:39.106Z,45.30
2019-03-21T08:53:41.313Z,45.70
2019-03-21T08:56:43.529Z,45.80
2019-03-21T08:59:47.984Z,45.90
2019-03-21T09:02:50.811Z,46.20
2019-03-21T09:05:53.004Z,46.40
2019-03-21T09:08:55.201Z,46.50
2019-03-21T09:11:57.405Z,46.60
2019-03-21T09:14:59.583Z,46.80
2019-03-21T09:18:01.844Z,46.70
2019-03-21T09:21:04.055Z,46.80
2019-03-21T09:24:06.210Z,46.80
2019-03-21T09:27:08.503Z,46.80
2019-03-21T09:30:10.913Z,46.90
2019-03-21T09:33:13.099Z,46.90
2019-03-21T09:36:15.348Z,46.90
2019-03-21T09:39:17.510Z,47.00
2019-03-21T09:42:19.734Z,47.00
2019-03-21T09:45:21.949Z,46.90
2019-03-21T09:48:24.210Z,46.90
2019-03-21T09:51:30.896Z,46.80
2019-03-21T09:54:30.304Z,46.70
2019-03-21T09:57:32.614Z,46.70
2019-03-21T10:00:36.414Z,46.70
2019-03-21T10:03:38.619Z,46.60
2019-03-21T10:06:40.896Z,46.60
2019-03-21T10:09:43.117Z,46.50
2019-03-21T10:12:45.359Z,46.50
2019-03-21T10:15:47.560Z,46.60
2019-03-21T10:18:49.801Z,46.40
2019-03-21T10:21:52.077Z,46.50
2019-03-21T10:24:54.303Z,46.40
2019-03-21T10:27:56.577Z,46.30
2019-03-21T10:30:58.801Z,46.30
2019-03-21T10:34:01.050Z,46.40
2019-03-21T10:37:03.314Z,46.30
2019-03-21T10:40:05.972Z,46.30
2019-03-21T10:43:10.438Z,46.40
2019-03-21T10:46:12.400Z,46.30
2019-03-21T10:49:14.631Z,46.30
2019-03-21T10:52:16.912Z,46.20
2019-03-21T10:55:19.167Z,46.10
2019-03-21T10:58:21.396Z,46.00
2019-03-21T11:01:23.642Z,45.90
2019-03-21T11:04:25.853Z,45.80
2019-03-21T11:07:24.892Z,45.70
2019-03-21T11:10:27.148Z,45.70
2019-03-21T11:13:29.371Z,39.00
2019-03-21T11:16:31.686Z,36.90
2019-03-21T11:19:33.925Z,35.00
2019-03-21T11:22:36.193Z,34.20
2019-03-21T11:25:38.523Z,34.40
2019-03-21T11:28:40.762Z,33.70
2019-03-21T11:31:43.081Z,33.60
2019-03-21T11:34:45.303Z,34.70
2019-03-21T11:37:47.530Z,34.90
2019-03-21T11:40:49.783Z,33.60
2019-03-21T11:43:52.006Z,33.90
2019-03-21T11:46:54.231Z,32.10
2019-03-21T11:49:56.437Z,32.60
2019-03-21T11:52:58.652Z,32.60
2019-03-21T11:56:00.916Z,33.40
2019-03-21T11:59:03.143Z,32.10
2019-03-21T12:02:05.382Z,32.70
2019-03-21T12:05:07.782Z,32.50
2019-03-21T12:08:10.098Z,33.60
2019-03-21T12:11:12.365Z,33.10
2019-03-21T12:14:14.619Z,30.90
2019-03-21T12:17:16.879Z,32.60
2019-03-21T12:20:37.515Z,32.80
2019-03-21T12:23:39.740Z,32.80
2019-03-21T12:26:41.965Z,32.20
2019-03-21T12:29:44.205Z,31.30
2019-03-21T12:32:46.459Z,31.30
2019-03-21T12:35:48.723Z,31.90
2019-03-21T12:38:56.944Z,30.80
2019-03-21T12:41:59.252Z,31.00
2019-03-21T12:45:01.585Z,31.00
2019-03-21T12:48:04.216Z,31.20
2019-03-21T12:51:06.454Z,29.90
2019-03-21T12:54:09.761Z,30.80
2019-03-21T12:57:12.016Z,30.50
2019-03-21T13:00:14.900Z,29.90
2019-03-21T13:03:17.127Z,30.40
2019-03-21T13:06:19.365Z,30.00
2019-03-21T13:09:21.625Z,30.10
2019-03-21T13:12:23.865Z,29.00
2019-03-21T13:15:30.098Z,29.20
2019-03-21T13:18:30.010Z,28.70
2019-03-21T13:21:32.244Z,28.90
2019-03-21T13:24:34.494Z,28.10
2019-03-21T13:27:36.722Z,29.10
2019-03-21T13:30:39.140Z,28.60
2019-03-21T13:33:41.395Z,28.50
2019-03-21T13:36:43.620Z,28.00
2019-03-21T13:39:45.883Z,28.40
2019-03-21T13:42:48.127Z,28.40
2019-03-21T13:45:50.384Z,28.00
2019-03-21T13:48:52.609Z,27.10
2019-03-21T13:51:54.835Z,26.70
2019-03-21T13:54:57.092Z,27.30
2019-03-21T13:57:59.325Z,26.00
2019-03-21T14:01:01.575Z,26.60
2019-03-21T14:04:03.804Z,26.30
2019-03-21T14:07:06.031Z,25.70
2019-03-21T14:10:08.747Z,25.80
2019-03-21T14:13:13.046Z,25.30
2019-03-21T14:16:15.323Z,25.80
2019-03-21T14:19:17.575Z,25.80
2019-03-21T14:22:21.339Z,25.60
2019-03-21T14:25:23.696Z,24.60
2019-03-21T14:28:25.951Z,24.40
2019-03-21T14:31:28.184Z,25.00
2019-03-21T14:34:30.484Z,25.20
2019-03-21T14:37:32.805Z,25.20
2019-03-21T14:40:35.141Z,24.60
2019-03-21T14:43:37.362Z,24.40
2019-03-21T14:46:39.591Z,23.90
2019-03-21T14:49:41.841Z,23.60
2019-03-21T14:52:44.082Z,23.90
2019-03-21T14:55:47.704Z,23.40
2019-03-21T14:58:50.073Z,23.70
2019-03-21T15:01:52.293Z,23.60
2019-03-21T15:04:54.549Z,22.90
2019-03-21T15:07:56.769Z,22.40
2019-03-21T15:10:59.015Z,23.10
2019-03-21T15:14:01.244Z,22.80
2019-03-21T15:17:03.540Z,22.70
2019-03-21T15:20:07.122Z,23.20
2019-03-21T15:23:09.424Z,21.90
2019-03-21T15:26:11.655Z,22.00
2019-03-21T15:29:14.102Z,21.60
2019-03-21T15:32:16.305Z,21.40
2019-03-21T15:35:19.278Z,21.90
2019-03-21T15:38:21.520Z,22.30
2019-03-21T15:41:23.755Z,22.80
2019-03-21T15:44:25.980Z,22.50
2019-03-21T15:47:28.252Z,22.80
2019-03-21T15:50:37.817Z,22.40
2019-03-21T15:53:39.667Z,22.20
2019-03-21T15:56:41.931Z,22.30
2019-03-21T15:59:44.181Z,22.10
2019-03-21T16:02:46.410Z,21.20
2019-03-21T16:05:48.697Z,21.80
2019-03-21T16:08:50.956Z,21.50
2019-03-21T16:11:53.199Z,20.50
2019-03-21T16:14:55.485Z,21.10
2019-03-21T16:17:59.377Z,20.90
2019-03-21T16:21:01.645Z,20.60
2019-03-21T16:24:05.405Z,20.50
2019-03-21T16:27:07.990Z,20.30
2019-03-21T16:30:11.667Z,20.80
2019-03-21T16:33:15.933Z,19.80
2019-03-21T16:36:25.931Z,20.10
2019-03-21T16:39:29.235Z,19.90
2019-03-21T16:42:31.502Z,20.10
2019-03-21T16:45:33.788Z,20.50
2019-03-21T16:48:36.038Z,20.50
2019-03-21T16:51:38.305Z,19.90
2019-03-21T16:54:40.651Z,20.50
2019-03-21T16:57:43.025Z,20.90
2019-03-21T17:00:45.256Z,21.10
2019-03-21T17:03:47.730Z,21.20
2019-03-21T17:06:50.107Z,20.50
2019-03-21T17:09:52.869Z,21.70
2019-03-21T17:12:55.148Z,21.60
2019-03-21T17:15:57.486Z,21.70
2019-03-21T17:19:00.772Z,22.30
2019-03-21T17:22:03.065Z,22.80
2019-03-21T17:25:05.488Z,23.00
2019-03-21T17:28:07.867Z,23.80
2019-03-21T17:31:10.097Z,24.30
2019-03-21T17:34:12.349Z,25.30
2019-03-21T17:37:14.606Z,26.40
2019-03-21T17:40:18.177Z,26.80
2019-03-21T17:43:20.493Z,27.10
2019-03-21T17:46:22.731Z,27.30
2019-03-21T17:49:24.954Z,27.60
2019-03-21T17:52:27.210Z,27.80
2019-03-21T17:55:29.428Z,28.10
2019-03-21T17:58:31.660Z,28.30
2019-03-21T18:01:33.897Z,28.60
2019-03-21T18:04:37.138Z,28.90
2019-03-21T18:07:39.401Z,29.00
2019-03-21T18:10:41.674Z,29.20
2019-03-21T18:13:43.902Z,29.90
2019-03-21T18:16:46.138Z,29.60
2019-03-21T18:19:48.434Z,29.80
2019-03-21T18:22:50.679Z,30.00
2019-03-21T18:25:52.919Z,30.00
2019-03-21T18:28:55.186Z,29.80
2019-03-21T18:31:57.415Z,30.00
2019-03-21T18:35:02.743Z,30.10
2019-03-21T18:38:05.084Z,30.40
2019-03-21T18:41:07.441Z,30.80
2019-03-21T18:44:09.691Z,31.00
2019-03-21T18:47:11.931Z,31.30
2019-03-21T18:50:15.400Z,31.50
2019-03-21T18:53:17.679Z,31.60
2019-03-21T18:56:19.913Z,32.00
2019-03-21T18:59:22.200Z,32.10
2019-03-21T19:02:24.399Z,32.40
2019-03-21T19:05:26.724Z,32.80
2019-03-21T19:08:29.013Z,32.90
2019-03-21T19:11:31.373Z,33.30
2019-03-21T19:14:33.620Z,33.40
2019-03-21T19:17:35.858Z,33.60
2019-03-21T19:20:38.112Z,34.70
2019-03-21T19:23:40.404Z,34.40
2019-03-21T19:26:42.636Z,34.60
2019-03-21T19:29:44.889Z,35.00
2019-03-21T19:32:47.210Z,35.10
2019-03-21T19:35:49.459Z,35.20
2019-03-21T19:38:51.732Z,35.40
2019-03-21T19:41:53.997Z,35.60
2019-03-21T19:44:56.253Z,35.20
2019-03-21T19:47:58.558Z,35.30
2019-03-21T19:51:00.821Z,35.50
2019-03-21T19:54:03.004Z,35.40
2019-03-21T19:57:05.363Z,35.70
2019-03-21T20:00:11.529Z,35.70
2019-03-21T20:03:13.940Z,35.90
2019-03-21T20:06:16.293Z,35.90
2019-03-21T20:09:18.559Z,36.00
2019-03-21T20:12:20.808Z,36.30
2019-03-21T20:15:23.132Z,36.30
2019-03-21T20:18:26.564Z,36.60
2019-03-21T20:21:28.873Z,36.70
2019-03-21T20:24:31.204Z,36.80
2019-03-21T20:27:33.554Z,36.90
2019-03-21T20:30:35.992Z,37.00
2019-03-21T20:33:38.196Z,37.00
2019-03-21T20:36:40.496Z,37.20
2019-03-21T20:39:42.804Z,37.30
2019-03-21T20:42:46.105Z,37.40
2019-03-21T20:45:48.364Z,37.50
2019-03-21T20:48:47.349Z,37.70
2019-03-21T20:51:49.654Z,37.70
2019-03-21T20:54:51.857Z,37.70
2019-03-21T20:57:55.314Z,37.90
2019-03-21T21:00:57.539Z,38.00
2019-03-21T21:03:59.775Z,37.90
2019-03-21T21:07:02.058Z,38.10
2019-03-21T21:10:04.608Z,38.00
2019-03-21T21:13:06.921Z,38.20
2019-03-21T21:16:10.246Z,38.20
2019-03-21T21:19:14.814Z,38.20
2019-03-21T21:22:17.082Z,38.30
2019-03-21T21:25:19.417Z,38.40
2019-03-21T21:28:21.674Z,38.40
2019-03-21T21:31:23.988Z,38.40
2019-03-21T21:34:26.198Z,38.40
2019-03-21T21:37:28.437Z,38.40
2019-03-21T21:40:32.764Z,39.00
2019-03-21T21:43:35.104Z,38.60
2019-03-21T21:46:37.363Z,38.50
2019-03-21T21:49:39.603Z,38.60
2019-03-21T21:52:42.509Z,38.80
2019-03-21T21:55:44.882Z,38.60
2019-03-21T21:58:47.114Z,38.80
2019-03-21T22:01:49.393Z,38.80
2019-03-21T22:04:52.395Z,38.80
2019-03-21T22:07:59.665Z,38.80
2019-03-21T22:11:01.888Z,39.00
2019-03-21T22:14:04.106Z,39.00
2019-03-21T22:17:06.395Z,39.00
2019-03-21T22:20:09.507Z,39.00
2019-03-21T22:23:11.814Z,39.00
2019-03-21T22:26:14.071Z,39.00
2019-03-21T22:29:16.443Z,39.10
2019-03-21T22:32:18.679Z,39.10
2019-03-21T22:35:20.975Z,39.10
2019-03-21T22:38:23.317Z,39.20
2019-03-21T22:41:25.606Z,39.20
2019-03-21T22:44:27.858Z,39.20
2019-03-21T22:47:30.103Z,39.20
2019-03-21T22:50:32.339Z,39.20
2019-03-21T22:53:34.641Z,39.30
2019-03-21T22:56:41.578Z,39.20
2019-03-21T22:59:40.798Z,39.30
2019-03-21T23:02:43.029Z,39.30
2019-03-21T23:05:46.357Z,39.30
2019-03-21T23:08:48.607Z,39.40
2019-03-21T23:11:50.932Z,39.40
2019-03-21T23:14:53.163Z,39.40
2019-03-21T23:17:55.378Z,39.60
2019-03-21T23:20:57.599Z,39.50
2019-03-21T23:23:59.898Z,39.60
2019-03-21T23:27:02.205Z,39.60
2019-03-21T23:30:05.265Z,39.50
2019-03-21T23:33:07.541Z,39.50
2019-03-21T23:36:09.783Z,39.60
2019-03-21T23:39:12.128Z,39.60
2019-03-21T23:42:14.341Z,39.50
2019-03-21T23:45:16.809Z,39.70
2019-03-21T23:48:19.058Z,39.60
2019-03-21T23:51:21.248Z,39.80
2019-03-21T23:54:23.503Z,39.80
2019-03-21T23:57:25.727Z,39.80
